Time;durP1;ratioP1;P1;durP2;ratioP2;P2;SDS_P1;SDS_P2;PMS_P1;PMS_P2;Temp;Humidity;BMP_temperature;BMP_pressure;BME280_temperature;BME280_humidity;BME280_pressure;Samples;Min_cycle;Max_cycle;Signal;HPM_P1;HPM_P2
2023/09/09 00:01:25;;;;;;;59.15;32.45;;;19.30;99.90;;;;;;5055613;28;20056;-74
2023/09/09 00:03:51;;;;;;;58.92;32.55;;;19.30;99.90;;;;;;5073443;28;20021;-74
2023/09/09 00:06:17;;;;;;;56.97;32.70;;;19.30;99.90;;;;;;5072958;28;20025;-73
2023/09/09 00:08:43;;;;;;;54.05;30.27;;;19.30;99.90;;;;;;5055429;28;20115;-74
2023/09/09 00:11:09;;;;;;;50.17;29.02;;;19.20;99.90;;;;;;5073308;28;20055;-74
2023/09/09 00:13:35;;;;;;;62.40;32.25;;;19.20;99.90;;;;;;5055137;28;20052;-74
2023/09/09 00:16:01;;;;;;;53.88;31.13;;;19.20;99.90;;;;;;5073163;28;20029;-74
2023/09/09 00:18:26;;;;;;;58.53;32.78;;;19.20;99.90;;;;;;5072979;28;20031;-74
2023/09/09 00:20:52;;;;;;;53.22;30.27;;;19.10;99.90;;;;;;5072912;28;20013;-73
2023/09/09 00:23:18;;;;;;;60.28;32.65;;;19.10;99.90;;;;;;5075165;28;20107;-74
2023/09/09 00:25:43;;;;;;;67.18;37.92;;;19.10;99.90;;;;;;5077281;28;20013;-74
2023/09/09 00:28:13;;;;;;;76.72;41.28;;;19.10;99.90;;;;;;5077083;28;20020;-74
2023/09/09 00:30:39;;;;;;;80.63;42.47;;;19.10;99.90;;;;;;5077283;28;20020;-74
2023/09/09 00:33:07;;;;;;;78.05;40.92;;;19.10;99.90;;;;;;5058898;28;20023;-74
2023/09/09 00:35:33;;;;;;;80.65;40.83;;;19.10;99.90;;;;;;5076953;28;20028;-74
2023/09/09 00:37:59;;;;;;;78.85;41.65;;;19.10;99.90;;;;;;5076858;28;20070;-74
2023/09/09 00:40:25;;;;;;;81.10;42.15;;;19.10;99.90;;;;;;5076988;28;20028;-74
2023/09/09 00:42:50;;;;;;;80.85;43.25;;;19.10;99.90;;;;;;5076896;28;20017;-74
2023/09/09 00:45:16;;;;;;;80.55;40.80;;;19.10;99.90;;;;;;5077094;28;20013;-74
2023/09/09 00:47:42;;;;;;;76.95;40.40;;;19.10;99.90;;;;;;5076844;28;20027;-74
2023/09/09 00:50:13;;;;;;;80.15;40.42;;;19.00;99.90;;;;;;5076613;28;20017;-74
2023/09/09 00:52:40;;;;;;;82.57;42.22;;;18.90;99.90;;;;;;5076986;28;20052;-74
2023/09/09 00:55:11;;;;;;;77.03;41.38;;;18.90;99.90;;;;;;5076160;28;20116;-73
2023/09/09 00:57:36;;;;;;;79.15;42.90;;;18.90;99.90;;;;;;5076699;28;20029;-74
2023/09/09 01:00:04;;;;;;;80.95;42.17;;;18.90;99.90;;;;;;5058489;28;20017;-74
2023/09/09 01:02:30;;;;;;;83.32;41.38;;;18.80;99.90;;;;;;5076303;28;20479;-74
2023/09/09 01:04:59;;;;;;;73.13;39.03;;;;;;;;;;5076146;28;20044;-74
2023/09/09 01:07:26;;;;;;;74.28;39.45;;;18.70;99.90;;;;;;5076486;28;20388;-74
2023/09/09 01:09:52;;;;;;;84.70;43.35;;;18.80;99.90;;;;;;5076412;28;20090;-75
2023/09/09 01:12:18;;;;;;;80.32;42.38;;;18.80;99.90;;;;;;5058335;28;20100;-74
2023/09/09 01:14:43;;;;;;;84.03;43.63;;;18.70;99.90;;;;;;5076056;28;20044;-74
2023/09/09 01:17:10;;;;;;;82.30;43.20;;;18.70;99.90;;;;;;5058261;28;20024;-75
2023/09/09 01:19:35;;;;;;;78.18;41.67;;;18.70;99.90;;;;;;5076156;28;20388;-75
2023/09/09 01:22:08;;;;;;;71.72;38.92;;;18.60;99.90;;;;;;5076209;28;20017;-74
2023/09/09 01:24:34;;;;;;;72.10;37.60;;;18.50;99.90;;;;;;5075856;28;20051;-74
2023/09/09 01:27:00;;;;;;;66.65;36.65;;;18.50;99.90;;;;;;5076154;28;20024;-74
2023/09/09 01:29:25;;;;;;;69.78;36.25;;;18.50;99.90;;;;;;5076181;28;20047;-75
2023/09/09 01:31:51;;;;;;;66.20;35.25;;;18.50;99.90;;;;;;5058132;28;20414;-74
2023/09/09 01:34:17;;;;;;;66.15;36.17;;;18.40;99.90;;;;;;5075652;28;20437;-74
2023/09/09 01:36:42;;;;;;;67.35;35.15;;;18.30;99.90;;;;;;5057578;28;20039;-74
2023/09/09 01:39:08;;;;;;;65.20;35.78;;;18.30;99.90;;;;;;5075762;28;20035;-74
2023/09/09 01:41:33;;;;;;;60.97;32.38;;;18.20;99.90;;;;;;5075663;28;20040;-74
2023/09/09 01:43:59;;;;;;;62.97;35.33;;;18.20;99.90;;;;;;5075993;28;20016;-74
2023/09/09 01:46:24;;;;;;;62.47;33.33;;;18.10;99.90;;;;;;5075662;28;20020;-74
2023/09/09 01:48:50;;;;;;;71.13;38.83;;;18.10;99.90;;;;;;5057706;28;20031;-75
2023/09/09 01:51:15;;;;;;;67.82;35.47;;;18.10;99.90;;;;;;5075595;28;20032;-74
2023/09/09 01:53:41;;;;;;;70.22;37.10;;;18.00;99.90;;;;;;5075689;28;20060;-74
2023/09/09 01:56:06;;;;;;;81.32;42.85;;;18.10;99.90;;;;;;5075789;28;20073;-75
2023/09/09 01:58:32;;;;;;;80.88;43.42;;;18.00;99.90;;;;;;5075710;28;20025;-74
2023/09/09 02:00:58;;;;;;;79.80;41.70;;;18.00;99.90;;;;;;5071267;28;20028;-74
2023/09/09 02:03:25;;;;;;;88.95;43.30;;;18.00;99.90;;;;;;5055225;28;20025;-75
2023/09/09 02:05:50;;;;;;;90.50;44.72;;;18.00;99.90;;;;;;5055409;28;20415;-74
2023/09/09 02:08:16;;;;;;;81.60;42.05;;;18.00;99.90;;;;;;5055573;28;20040;-74
2023/09/09 02:10:42;;;;;;;71.93;38.70;;;17.90;99.90;;;;;;5055274;28;20434;-74
2023/09/09 02:13:08;;;;;;;66.22;34.88;;;17.90;99.90;;;;;;5055180;28;20092;-74
2023/09/09 02:15:33;;;;;;;66.57;37.47;;;17.90;99.90;;;;;;5055053;28;20028;-74
2023/09/09 02:17:59;;;;;;;69.65;37.35;;;17.90;99.90;;;;;;5054978;28;20472;-75
2023/09/09 02:20:24;;;;;;;67.60;36.35;;;17.80;99.90;;;;;;5055165;28;20029;-74
2023/09/09 02:22:50;;;;;;;73.10;38.00;;;17.80;99.90;;;;;;5054652;28;20021;-75
2023/09/09 02:25:16;;;;;;;72.30;37.42;;;17.80;99.90;;;;;;5054835;28;20024;-75
2023/09/09 02:27:41;;;;;;;73.65;38.63;;;17.70;99.90;;;;;;5036821;28;20025;-74
2023/09/09 02:30:07;;;;;;;87.85;42.55;;;17.70;99.90;;;;;;5054689;28;20028;-74
2023/09/09 02:32:33;;;;;;;83.32;42.58;;;17.70;99.90;;;;;;5054574;28;20480;-75
2023/09/09 02:34:59;;;;;;;68.88;37.28;;;17.70;99.90;;;;;;5054514;28;20422;-74
2023/09/09 02:37:26;;;;;;;67.05;33.35;;;17.60;99.90;;;;;;5036577;28;20403;-75
2023/09/09 02:39:52;;;;;;;77.85;39.95;;;17.50;99.90;;;;;;5054838;28;20025;-74
2023/09/09 02:42:22;;;;;;;76.18;40.17;;;17.50;99.90;;;;;;5054608;28;20036;-74
2023/09/09 02:44:49;;;;;;;71.60;38.42;;;17.50;99.90;;;;;;5036191;28;20017;-75
2023/09/09 02:47:15;;;;;;;75.32;38.35;;;17.40;99.90;;;;;;5054212;28;20032;-74
2023/09/09 02:49:41;;;;;;;71.50;36.60;;;17.40;99.90;;;;;;5054290;28;20021;-74
2023/09/09 02:52:07;;;;;;;76.85;39.30;;;17.40;99.90;;;;;;5054591;28;20029;-74
2023/09/09 02:54:34;;;;;;;84.28;40.38;;;17.40;99.90;;;;;;5054466;28;20100;-74
2023/09/09 02:57:00;;;;;;;76.95;40.13;;;17.40;99.90;;;;;;5036559;28;20406;-75
2023/09/09 02:59:26;;;;;;;80.85;40.22;;;17.30;99.90;;;;;;5054269;28;20480;-74
2023/09/09 03:01:51;;;;;;;77.00;39.85;;;17.30;99.90;;;;;;5054382;28;20105;-74
2023/09/09 03:04:19;;;;;;;73.18;37.58;;;17.30;99.90;;;;;;5035968;28;20052;-74
2023/09/09 03:06:45;;;;;;;65.38;33.20;;;17.30;99.90;;;;;;5054043;28;20527;-74
2023/09/09 03:09:13;;;;;;;65.50;33.55;;;17.30;99.90;;;;;;5053990;28;20113;-75
2023/09/09 03:11:38;;;;;;;65.53;35.28;;;17.20;99.90;;;;;;5053933;28;20400;-74
2023/09/09 03:14:04;;;;;;;71.00;36.53;;;17.20;99.90;;;;;;5036254;28;20025;-75
2023/09/09 03:16:29;;;;;;;74.45;35.45;;;17.10;99.90;;;;;;5054399;28;20463;-75
2023/09/09 03:18:55;;;;;;;68.93;36.90;;;17.10;99.90;;;;;;5053897;28;20494;-75
2023/09/09 03:21:20;;;;;;;70.18;36.22;;;17.00;99.90;;;;;;5035824;28;20025;-74
2023/09/09 03:23:46;;;;;;;63.72;34.20;;;17.00;99.90;;;;;;5053914;28;20021;-74
2023/09/09 03:26:18;;;;;;;71.63;37.42;;;17.00;99.90;;;;;;5053642;28;20032;-74
2023/09/09 03:28:47;;;;;;;76.97;38.90;;;16.90;99.90;;;;;;5053909;28;20045;-74
2023/09/09 03:31:12;;;;;;;69.22;35.78;;;16.90;99.90;;;;;;5053694;28;20036;-74
2023/09/09 03:33:39;;;;;;;66.35;34.05;;;16.90;99.90;;;;;;5053835;28;20384;-74
2023/09/09 03:36:05;;;;;;;65.60;33.60;;;16.90;99.90;;;;;;5053438;28;20626;-74
2023/09/09 03:38:30;;;;;;;67.10;34.58;;;16.80;99.90;;;;;;5035830;28;20024;-74
2023/09/09 03:40:56;;;;;;;62.78;33.58;;;16.80;99.90;;;;;;5053443;28;20020;-74
2023/09/09 03:43:22;;;;;;;70.28;35.00;;;16.80;99.90;;;;;;5053886;28;20449;-74
2023/09/09 03:45:53;;;;;;;76.22;38.60;;;16.80;99.90;;;;;;5035442;28;20023;-75
2023/09/09 03:48:19;;;;;;;66.40;35.53;;;16.70;99.90;;;;;;5053316;28;20477;-74
2023/09/09 03:50:44;;;;;;;70.57;35.65;;;16.80;99.90;;;;;;5053534;28;20017;-74
2023/09/09 03:53:10;;;;;;;66.88;34.38;;;16.80;99.90;;;;;;5053339;28;20055;-74
2023/09/09 03:55:35;;;;;;;65.93;34.97;;;16.70;99.90;;;;;;5053439;28;20028;-74
2023/09/09 03:58:01;;;;;;;67.47;35.65;;;16.60;99.90;;;;;;5035439;28;20033;-74
2023/09/09 04:00:26;;;;;;;65.72;34.22;;;16.60;99.90;;;;;;5053837;28;20021;-75
2023/09/09 04:02:52;;;;;;;64.65;33.40;;;16.60;99.90;;;;;;5053355;28;20045;-75
2023/09/09 04:05:18;;;;;;;68.40;33.22;;;16.60;99.90;;;;;;5035283;28;20051;-74
2023/09/09 04:07:44;;;;;;;60.22;33.08;;;16.50;99.90;;;;;;5053795;28;20053;-74
2023/09/09 04:10:11;;;;;;;61.13;31.88;;;16.50;99.90;;;;;;5053715;28;20017;-74
2023/09/09 04:12:36;;;;;;;61.35;31.75;;;16.50;99.90;;;;;;5053328;28;20127;-74
2023/09/09 04:15:02;;;;;;;48.35;26.42;;;16.40;99.90;;;;;;5053185;28;20061;-74
2023/09/09 04:17:27;;;;;;;53.13;27.73;;;16.40;99.90;;;;;;5053681;28;20029;-74
2023/09/09 04:19:53;;;;;;;45.45;25.13;;;16.40;99.90;;;;;;5053233;28;20017;-74
2023/09/09 04:22:18;;;;;;;45.85;24.73;;;16.40;99.90;;;;;;5053533;28;20013;-74
2023/09/09 04:24:44;;;;;;;47.72;24.55;;;16.30;99.90;;;;;;5053119;28;20079;-75
2023/09/09 04:27:10;;;;;;;42.53;22.73;;;16.30;99.90;;;;;;5052631;28;20060;-74
2023/09/09 04:29:36;;;;;;;41.28;23.35;;;;;;;;;;5035268;28;20037;-75
2023/09/09 04:32:02;;;;;;;50.85;27.30;;;16.30;99.90;;;;;;5053021;28;20477;-74
2023/09/09 04:34:27;;;;;;;65.72;32.78;;;16.30;99.90;;;;;;5053216;28;20389;-74
2023/09/09 04:36:53;;;;;;;53.45;27.92;;;16.30;99.90;;;;;;5052803;28;20025;-74
2023/09/09 04:39:19;;;;;;;53.78;28.40;;;16.20;99.90;;;;;;5035267;28;20028;-74
2023/09/09 04:41:44;;;;;;;63.67;31.23;;;16.20;99.90;;;;;;5052780;28;20048;-74
2023/09/09 04:44:10;;;;;;;69.18;30.90;;;16.20;99.90;;;;;;5052476;28;20040;-74
2023/09/09 04:46:35;;;;;;;56.65;30.67;;;16.10;99.90;;;;;;5053006;28;20096;-74
2023/09/09 04:49:02;;;;;;;82.68;34.00;;;16.10;99.90;;;;;;5052834;28;20029;-75
2023/09/09 04:51:31;;;;;;;65.88;33.67;;;16.00;99.90;;;;;;5053305;28;20032;-74
2023/09/09 04:53:57;;;;;;;;;;;16.10;99.90;;;;;;5053487;28;20399;-74
2023/09/09 04:56:22;;;;;;;143.48;33.05;;;16.10;99.90;;;;;;5052656;28;19904;-75
2023/09/09 04:58:49;;;;;;;68.43;33.38;;;16.10;99.90;;;;;;5053117;28;20492;-74
2023/09/09 05:01:14;;;;;;;70.03;34.05;;;16.10;99.90;;;;;;5052850;28;20397;-74
2023/09/09 05:03:40;;;;;;;61.88;32.45;;;16.10;99.90;;;;;;5052864;28;20043;-75
2023/09/09 05:06:05;;;;;;;62.30;30.52;;;16.00;99.90;;;;;;5052479;28;20040;-75
2023/09/09 05:08:31;;;;;;;60.17;32.15;;;16.10;99.90;;;;;;5053498;28;20036;-74
2023/09/09 05:10:57;;;;;;;63.17;30.75;;;16.30;99.90;;;;;;5038144;28;20021;-74
2023/09/09 05:13:22;;;;;;;91.20;34.88;;;16.20;99.90;;;;;;5056696;28;20075;-74
2023/09/09 05:15:48;;;;;;;75.80;34.78;;;16.20;99.90;;;;;;5056195;28;20025;-74
2023/09/09 05:18:13;;;;;;;75.00;34.58;;;16.30;99.90;;;;;;5056298;28;20096;-74
2023/09/09 05:20:39;;;;;;;103.05;40.25;;;16.40;99.90;;;;;;5038268;28;20404;-74
2023/09/09 05:23:05;;;;;;;171.98;42.90;;;16.40;99.90;;;;;;5056311;28;20063;-74
2023/09/09 05:25:30;;;;;;;150.35;41.60;;;16.50;99.90;;;;;;5055878;28;20025;-74
2023/09/09 05:27:56;;;;;;;146.63;43.22;;;16.60;99.90;;;;;;5056100;28;20083;-74
2023/09/09 05:30:21;;;;;;;106.63;41.25;;;16.70;99.90;;;;;;5056028;28;20106;-75
2023/09/09 05:32:47;;;;;;;246.25;42.42;;;16.80;99.90;;;;;;5056215;28;20060;-74
2023/09/09 05:35:13;;;;;;;264.73;45.65;;;16.90;99.90;;;;;;5055487;28;20493;-74
2023/09/09 05:37:45;;;;;;;203.77;48.25;;;16.90;99.90;;;;;;5055979;28;20032;-74
2023/09/09 05:40:11;;;;;;;386.27;45.50;;;17.00;99.90;;;;;;5056394;28;20022;-74
2023/09/09 05:42:37;;;;;;;584.13;47.85;;;17.10;99.90;;;;;;5055729;28;20074;-75
2023/09/09 05:45:05;;;;;;;593.20;47.15;;;17.20;99.90;;;;;;5055801;28;20021;-75
2023/09/09 05:47:31;;;;;;;446.52;46.42;;;17.30;99.90;;;;;;5037610;28;20396;-74
2023/09/09 05:49:56;;;;;;;328.05;45.20;;;17.40;99.90;;;;;;5055959;28;20053;-75
2023/09/09 05:52:22;;;;;;;277.83;44.22;;;17.40;99.90;;;;;;5055715;28;20029;-74
2023/09/09 05:54:48;;;;;;;267.40;46.53;;;;;;;;;;5037559;28;20096;-74
2023/09/09 05:57:13;;;;;;;160.93;44.88;;;17.50;99.90;;;;;;5055640;28;20025;-74
2023/09/09 05:59:39;;;;;;;456.70;38.17;;;17.60;99.90;;;;;;5055235;28;20103;-74
2023/09/09 06:02:08;;;;;;;409.38;38.22;;;17.70;99.90;;;;;;5055475;28;20048;-74
2023/09/09 06:04:33;;;;;;;617.85;38.42;;;17.70;99.90;;;;;;5055412;28;20055;-74
2023/09/09 06:06:59;;;;;;;337.80;30.63;;;17.70;99.90;;;;;;5055212;28;20492;-74
2023/09/09 06:09:25;;;;;;;369.88;27.55;;;17.70;99.90;;;;;;5055477;28;20036;-74
2023/09/09 06:11:53;;;;;;;515.42;32.92;;;17.70;99.90;;;;;;5055208;28;20025;-74
2023/09/09 06:14:19;;;;;;;438.85;31.35;;;18.10;99.90;;;;;;5055024;28;20488;-74
2023/09/09 06:16:44;;;;;;;370.25;31.75;;;17.70;99.90;;;;;;5054984;28;20025;-74
2023/09/09 06:19:10;;;;;;;293.13;30.08;;;17.80;99.90;;;;;;5054633;28;20103;-74
2023/09/09 06:21:35;;;;;;;389.85;30.65;;;17.80;99.90;;;;;;5054050;28;20071;-74
2023/09/09 06:24:02;;;;;;;179.65;28.73;;;17.90;99.90;;;;;;5055574;28;20025;-74
2023/09/09 06:26:33;;;;;;;273.42;33.22;;;17.90;99.90;;;;;;5054842;28;20045;-74
2023/09/09 06:28:59;;;;;;;343.92;29.35;;;17.90;99.90;;;;;;5054488;28;20507;-75
2023/09/09 06:31:25;;;;;;;270.23;28.50;;;18.00;99.90;;;;;;5054993;28;20031;-74
2023/09/09 06:33:53;;;;;;;447.65;32.58;;;18.00;99.90;;;;;;5054957;28;20100;-74
2023/09/09 06:36:22;;;;;;;191.65;35.40;;;18.00;99.90;;;;;;5054562;28;20039;-74
2023/09/09 06:38:48;;;;;;;110.72;34.28;;;18.10;99.90;;;;;;5054839;28;20514;-74
2023/09/09 06:41:15;;;;;;;331.88;35.72;;;18.10;99.90;;;;;;5054562;28;20021;-74
2023/09/09 06:43:41;;;;;;;382.65;35.75;;;18.20;99.90;;;;;;5054618;28;20078;-74
2023/09/09 06:46:08;;;;;;;178.05;34.78;;;18.30;99.90;;;;;;5054746;28;20073;-74
2023/09/09 06:48:33;;;;;;;414.42;35.67;;;18.30;99.90;;;;;;5054455;28;20523;-74
2023/09/09 06:50:59;;;;;;;147.68;33.15;;;18.40;99.90;;;;;;5054702;28;20021;-74
2023/09/09 06:53:25;;;;;;;154.48;35.10;;;18.50;99.90;;;;;;5054754;28;20025;-75
2023/09/09 06:55:51;;;;;;;112.22;36.95;;;18.50;99.90;;;;;;5054235;28;20587;-74
2023/09/09 06:58:17;;;;;;;338.40;35.92;;;18.60;99.90;;;;;;5054313;28;20017;-74
2023/09/09 07:00:48;;;;;;;130.35;35.85;;;18.60;99.90;;;;;;5054128;28;20074;-75
2023/09/09 07:03:14;;;;;;;157.70;36.88;;;18.70;99.90;;;;;;5054355;28;20033;-74
2023/09/09 07:05:39;;;;;;;128.40;37.63;;;18.80;99.90;;;;;;5053962;28;20048;-74
2023/09/09 07:08:05;;;;;;;327.42;39.35;;;19.00;99.90;;;;;;5054162;28;20500;-74
2023/09/09 07:10:31;;;;;;;318.92;39.13;;;19.00;99.90;;;;;;5053774;28;20495;-75
2023/09/09 07:12:56;;;;;;;186.27;36.80;;;19.00;99.90;;;;;;5053905;28;20071;-75
2023/09/09 07:15:22;;;;;;;217.65;39.63;;;19.10;99.90;;;;;;5053957;28;20021;-73
2023/09/09 07:17:48;;;;;;;294.55;39.33;;;19.20;99.90;;;;;;5053280;28;20025;-73
2023/09/09 07:20:13;;;;;;;277.23;38.55;;;19.30;99.90;;;;;;5053659;28;20036;-73
2023/09/09 07:22:39;;;;;;;153.35;43.38;;;19.40;99.90;;;;;;5053787;28;20092;-73
2023/09/09 07:25:06;;;;;;;179.20;41.85;;;19.40;99.90;;;;;;5053552;28;20017;-73
2023/09/09 07:27:32;;;;;;;101.55;42.13;;;19.50;99.90;;;;;;5035806;28;20036;-73
2023/09/09 07:29:58;;;;;;;263.73;40.30;;;19.60;99.90;;;;;;5053584;28;20021;-73
2023/09/09 07:32:24;;;;;;;212.63;42.13;;;19.60;99.90;;;;;;5053169;28;20057;-73
2023/09/09 07:34:50;;;;;;;151.73;43.17;;;19.70;99.90;;;;;;5035379;28;20360;-73
2023/09/09 07:37:16;;;;;;;180.52;46.45;;;19.70;99.90;;;;;;5053339;28;20111;-73
2023/09/09 07:39:49;;;;;;;194.55;46.17;;;19.80;99.90;;;;;;5035649;28;20017;-73
2023/09/09 07:42:15;;;;;;;211.38;44.10;;;19.80;99.90;;;;;;5053816;28;20021;-73
2023/09/09 07:44:42;;;;;;;118.93;46.85;;;19.90;99.90;;;;;;5053654;28;20018;-73
2023/09/09 07:47:08;;;;;;;169.43;49.08;;;20.00;99.90;;;;;;5035640;28;20496;-72
2023/09/09 07:49:34;;;;;;;450.30;270.05;;;20.10;99.90;;;;;;5053399;28;20075;-73
2023/09/09 07:52:00;;;;;;;163.00;53.75;;;20.20;99.90;;;;;;5053326;28;20040;-73
2023/09/09 07:54:26;;;;;;;191.98;42.92;;;20.20;99.90;;;;;;5070773;28;20032;-73
2023/09/09 07:56:53;;;;;;;121.38;44.05;;;20.30;99.90;;;;;;5073548;28;20028;-73
2023/09/09 07:59:18;;;;;;;114.70;43.97;;;20.40;99.90;;;;;;5073505;28;20021;-73
2023/09/09 08:01:44;;;;;;;109.07;45.22;;;20.60;99.90;;;;;;5073386;28;20028;-73
2023/09/09 08:04:10;;;;;;;111.07;45.08;;;20.70;99.90;;;;;;5055224;28;20012;-73
2023/09/09 08:06:36;;;;;;;120.80;46.83;;;20.90;99.90;;;;;;5055384;28;20510;-73
2023/09/09 08:09:01;;;;;;;115.35;45.83;;;21.00;99.90;;;;;;5073257;28;20033;-73
2023/09/09 08:11:27;;;;;;;109.13;44.85;;;21.10;99.90;;;;;;5073408;28;20035;-73
2023/09/09 08:13:52;;;;;;;111.05;46.33;;;21.10;99.90;;;;;;5055422;28;20044;-73
2023/09/09 08:16:18;;;;;;;106.93;45.13;;;21.30;99.90;;;;;;5073515;28;20028;-74
2023/09/09 08:18:44;;;;;;;106.38;46.55;;;21.50;99.90;;;;;;5073696;28;20025;-72
2023/09/09 08:21:12;;;;;;;101.90;44.97;;;21.50;99.90;;;;;;5073584;28;20032;-74
2023/09/09 08:23:38;;;;;;;;;;;21.60;99.90;;;;;;5073731;28;20016;-74
2023/09/09 08:26:03;;;;;;;99.40;42.80;;;21.70;99.90;;;;;;5055108;28;19911;-74
2023/09/09 08:28:29;;;;;;;90.68;40.95;;;21.90;99.90;;;;;;5073562;28;20376;-76
2023/09/09 08:30:59;;;;;;;85.25;39.28;;;22.00;99.90;;;;;;5055006;28;20105;-76
2023/09/09 08:33:25;;;;;;;88.53;40.60;;;22.10;99.90;;;;;;5073118;28;20392;-76
2023/09/09 08:35:51;;;;;;;88.93;40.45;;;22.20;99.90;;;;;;5072878;28;20069;-76
2023/09/09 08:38:17;;;;;;;76.88;37.15;;;22.50;99.90;;;;;;5073189;28;20086;-72
2023/09/09 08:40:57;;;;;;;80.90;38.33;;;22.60;99.90;;;;;;5073039;28;20052;-72
2023/09/09 08:43:54;;;;;;;79.38;38.58;;;22.70;99.90;;;;;;5055845;28;20531;-72
2023/09/09 08:46:21;;;;;;;80.17;38.33;;;22.80;99.90;;;;;;5058848;28;20480;-72
2023/09/09 08:48:50;;;;;;;73.28;35.92;;;23.00;99.90;;;;;;5058901;28;20060;-72
2023/09/09 08:51:17;;;;;;;61.40;32.95;;;23.10;99.90;;;;;;5076932;28;20024;-72
2023/09/09 08:53:44;;;;;;;49.70;26.15;;;23.20;99.90;;;;;;5076887;28;20395;-73
2023/09/09 08:56:15;;;;;;;52.67;26.73;;;23.10;99.90;;;;;;5058744;28;20031;-73
2023/09/09 08:58:41;;;;;;;56.33;26.88;;;23.00;99.90;;;;;;5076795;28;20060;-72
2023/09/09 09:01:07;;;;;;;59.17;28.73;;;23.10;99.90;;;;;;5076937;28;20020;-72
2023/09/09 09:03:34;;;;;;;52.20;26.13;;;23.20;99.90;;;;;;5076817;28;20442;-72
2023/09/09 09:06:03;;;;;;;47.67;24.35;;;23.30;99.90;;;;;;5076821;28;20027;-72
2023/09/09 09:08:30;;;;;;;48.78;24.58;;;23.40;99.90;;;;;;5076625;28;20578;-72
2023/09/09 09:10:59;;;;;;;49.22;25.20;;;23.40;99.90;;;;;;5076426;28;20024;-74
2023/09/09 09:13:25;;;;;;;39.53;20.63;;;23.50;99.90;;;;;;5076293;28;20032;-72
2023/09/09 09:15:51;;;;;;;36.53;18.67;;;23.70;99.90;;;;;;5076113;28;20027;-72
2023/09/09 09:18:19;;;;;;;36.70;18.88;;;23.90;99.90;;;;;;5076267;28;20035;-72
2023/09/09 09:20:45;;;;;;;36.45;19.05;;;24.10;99.90;;;;;;5076260;28;20017;-72
2023/09/09 09:23:12;;;;;;;31.48;15.80;;;24.30;99.90;;;;;;5076158;28;20019;-72
2023/09/09 09:25:45;;;;;;;18.83;8.70;;;24.50;99.90;;;;;;5076466;28;20369;-72
2023/09/09 09:28:15;;;;;;;17.20;10.85;;;24.70;99.90;;;;;;5075987;28;20020;-74
2023/09/09 09:30:42;;;;;;;16.80;10.27;;;24.70;99.90;;;;;;5076246;28;20029;-74
2023/09/09 09:33:08;;;;;;;20.35;10.32;;;24.90;99.90;;;;;;5075977;28;20024;-74
2023/09/09 09:35:36;;;;;;;20.67;12.52;;;25.10;99.90;;;;;;5076140;28;20086;-74
2023/09/09 09:38:09;;;;;;;20.08;10.90;;;25.20;99.90;;;;;;5076166;28;20031;-74
2023/09/09 09:40:36;;;;;;;20.50;10.45;;;25.30;99.90;;;;;;5076388;28;20029;-74
2023/09/09 09:43:02;;;;;;;16.92;9.70;;;25.40;99.90;;;;;;5076142;28;20020;-74
2023/09/09 09:45:29;;;;;;;17.00;9.30;;;25.60;99.90;;;;;;5058647;28;20124;-74
2023/09/09 09:47:55;;;;;;;15.50;8.95;;;25.70;99.90;;;;;;5075709;28;20052;-74
2023/09/09 09:50:33;;;;;;;13.40;7.80;;;25.80;99.90;;;;;;5075848;28;20028;-74
2023/09/09 09:53:00;;;;;;;16.30;9.80;;;25.90;99.90;;;;;;5076015;28;20020;-74
2023/09/09 09:55:26;;;;;;;14.95;8.18;;;25.90;99.90;;;;;;5075401;28;20123;-74
2023/09/09 09:57:57;;;;;;;13.40;6.93;;;26.00;99.90;;;;;;5075580;28;20028;-74
2023/09/09 10:00:24;;;;;;;10.40;5.72;;;26.10;99.90;;;;;;5076233;28;20078;-75
2023/09/09 10:02:55;;;;;;;10.43;5.65;;;26.30;99.90;;;;;;5076022;28;20017;-76
2023/09/09 10:05:23;;;;;;;19.95;7.60;;;26.50;99.90;;;;;;5075345;28;20029;-76
2023/09/09 10:07:57;;;;;;;8.23;5.00;;;26.60;99.90;;;;;;5057704;28;20017;-76
2023/09/09 10:10:25;;;;;;;11.55;6.45;;;26.60;99.90;;;;;;5075701;28;20103;-72
2023/09/09 10:13:11;;;;;;;11.00;7.03;;;26.60;99.90;;;;;;5075336;28;20476;-72
2023/09/09 10:15:38;;;;;;;10.15;6.05;;;26.60;99.90;;;;;;5074878;28;20021;-74
2023/09/09 10:18:05;;;;;;;12.20;6.30;;;26.60;99.90;;;;;;5057118;28;20499;-74
2023/09/09 10:20:31;;;;;;;10.65;6.82;;;26.70;99.90;;;;;;5075143;28;20012;-74
2023/09/09 10:23:00;;;;;;;10.85;5.00;;;26.70;99.90;;;;;;5057039;28;20017;-74
2023/09/09 10:25:32;;;;;;;9.77;4.95;;;26.90;99.90;;;;;;5075226;28;20028;-74
2023/09/09 10:27:58;;;;;;;8.48;4.63;;;27.10;99.90;;;;;;5075040;28;20495;-74
2023/09/09 10:30:27;;;;;;;8.65;5.32;;;27.20;99.90;;;;;;5056913;28;20044;-75
2023/09/09 10:32:55;;;;;;;7.97;5.40;;;27.40;99.90;;;;;;5075042;28;20021;-75
2023/09/09 10:35:21;;;;;;;8.23;4.78;;;27.50;99.90;;;;;;5057022;28;20475;-75
2023/09/09 10:37:50;;;;;;;6.82;3.58;;;27.50;99.90;;;;;;5056877;28;20025;-75
2023/09/09 10:40:17;;;;;;;6.85;3.85;;;27.40;99.90;;;;;;5056882;28;20115;-75
2023/09/09 10:42:44;;;;;;;9.57;3.20;;;27.50;99.90;;;;;;5074675;28;20020;-75
2023/09/09 10:45:29;;;;;;;10.52;3.03;;;27.40;99.90;;;;;;5074461;28;20028;-75
2023/09/09 10:48:02;;;;;;;5.50;2.42;;;27.60;99.90;;;;;;5074724;28;20099;-75
2023/09/09 10:50:43;;;;;;;6.47;3.95;;;27.90;99.90;;;;;;5056674;28;20029;-75
2023/09/09 10:53:22;;;;;;;6.90;4.05;;;27.90;99.90;;;;;;5074514;28;20407;-75
2023/09/09 10:55:53;;;;;;;6.38;2.78;;;28.00;99.90;;;;;;5074238;28;20024;-75
2023/09/09 10:58:20;;;;;;;6.43;3.50;;;28.00;99.90;;;;;;5074493;28;20074;-75
2023/09/09 11:00:48;;;;;;;10.23;4.60;;;28.10;99.90;;;;;;5074225;28;20024;-75
2023/09/09 11:03:16;;;;;;;6.10;2.83;;;28.20;99.90;;;;;;5073936;28;20526;-75
2023/09/09 11:05:59;;;;;;;2.75;1.95;;;28.10;99.90;;;;;;5073867;28;20063;-75
2023/09/09 11:08:33;;;;;;;4.25;2.10;;;28.20;99.90;;;;;;5074131;28;20024;-75
2023/09/09 11:11:35;;;;;;;4.43;1.60;;;28.50;99.90;;;;;;5074196;28;20024;-75
2023/09/09 11:14:05;;;;;;;4.97;2.40;;;28.50;99.90;;;;;;5058055;28;20040;-75
2023/09/09 11:16:35;;;;;;;5.53;2.50;;;28.60;99.90;;;;;;5072467;28;20063;-75
2023/09/09 11:19:11;;;;;;;4.22;1.75;;;28.90;99.90;;;;;;5073817;28;20028;-75
2023/09/09 11:21:47;;;;;;;4.32;2.42;;;29.00;99.90;;;;;;5073836;28;20365;-75
2023/09/09 11:24:14;;;;;;;6.13;2.33;;;29.20;99.90;;;;;;5074383;28;20020;-75
2023/09/09 11:26:45;;;;;;;6.90;2.15;;;29.20;99.90;;;;;;5056041;28;20024;-75
2023/09/09 11:29:11;;;;;;;3.08;2.17;;;29.10;99.90;;;;;;5055958;28;20016;-75
2023/09/09 11:31:37;;;;;;;5.22;1.88;;;29.40;99.90;;;;;;5073631;28;20063;-75
2023/09/09 11:34:03;;;;;;;3.35;2.00;;;29.60;99.90;;;;;;5074015;28;20021;-75
2023/09/09 11:36:29;;;;;;;4.45;2.72;;;29.60;99.90;;;;;;5073539;28;20081;-75
2023/09/09 11:38:59;;;;;;;5.13;2.90;;;29.70;99.30;;;;;;5073331;28;20029;-75
2023/09/09 11:41:30;;;;;;;4.78;3.03;;;29.60;97.90;;;;;;5073410;28;20066;-75
2023/09/09 11:44:16;;;;;;;3.97;2.13;;;29.60;97.80;;;;;;5074071;28;20120;-75
2023/09/09 11:46:46;;;;;;;4.32;3.00;;;29.80;99.40;;;;;;5073123;28;20033;-74
2023/09/09 11:49:13;;;;;;;6.70;3.10;;;29.80;98.80;;;;;;5073242;28;20036;-75
2023/09/09 11:51:39;;;;;;;5.75;3.97;;;30.00;98.60;;;;;;5073497;28;20020;-75
2023/09/09 11:54:09;;;;;;;6.63;2.20;;;29.80;97.00;;;;;;5073635;28;20035;-75
2023/09/09 11:56:34;;;;;;;2.35;1.95;;;30.00;98.20;;;;;;5055553;28;20027;-75
2023/09/09 11:59:07;;;;;;;2.92;1.58;;;30.30;98.20;;;;;;5073313;28;20392;-75
2023/09/09 12:01:44;;;;;;;2.65;2.10;;;30.40;97.10;;;;;;5073373;28;20017;-75
2023/09/09 12:04:11;;;;;;;2.95;1.45;;;30.60;96.50;;;;;;5073298;28;20012;-75
2023/09/09 12:06:48;;;;;;;4.78;2.03;;;30.60;96.60;;;;;;5073213;28;20021;-75
2023/09/09 12:09:15;;;;;;;6.18;3.08;;;30.70;96.50;;;;;;5073189;28;20024;-75
2023/09/09 12:11:42;;;;;;;3.20;1.38;;;30.60;94.60;;;;;;5072982;28;20029;-75
2023/09/09 12:14:10;;;;;;;5.22;1.10;;;30.70;97.60;;;;;;5073205;28;20387;-75
2023/09/09 12:16:38;;;;;;;2.50;1.25;;;31.00;97.00;;;;;;5073107;28;20437;-75
2023/09/09 12:19:04;;;;;;;5.00;1.48;;;31.20;96.50;;;;;;5076555;28;20028;-75
2023/09/09 12:21:41;;;;;;;3.22;2.03;;;31.40;96.00;;;;;;5077472;28;20020;-75
2023/09/09 12:24:07;;;;;;;4.43;1.50;;;31.40;93.90;;;;;;5077403;28;20112;-75
2023/09/09 12:26:32;;;;;;;1.98;1.40;;;31.50;95.50;;;;;;5077048;28;20096;-75
2023/09/09 12:29:09;;;;;;;3.60;1.90;;;31.80;95.10;;;;;;5077224;28;20384;-75
2023/09/09 12:31:58;;;;;;;2.85;1.50;;;31.70;92.50;;;;;;5059368;28;20029;-75